createdAt,value
2023-01-19T00:03:27.019Z,20.50
2023-01-19T00:06:19.693Z,17.00
2023-01-19T00:13:47.630Z,17.50
2023-01-19T00:17:24.838Z,19.90
2023-01-19T00:25:07.522Z,19.60
2023-01-19T00:27:08.403Z,20.20
2023-01-19T00:28:06.555Z,21.90
2023-01-19T00:29:06.532Z,20.30
2023-01-19T00:31:17.548Z,21.90
2023-01-19T00:34:09.635Z,19.80
2023-01-19T00:44:39.763Z,22.40
2023-01-19T00:51:16.722Z,25.30
2023-01-19T01:00:00.982Z,21.70
2023-01-19T01:02:56.733Z,22.40
2023-01-19T01:08:25.658Z,26.60
2023-01-19T01:12:41.065Z,24.60
2023-01-19T01:15:03.274Z,26.50
2023-01-19T01:17:02.210Z,24.70
2023-01-19T01:23:22.036Z,28.50
2023-01-19T01:27:14.292Z,24.90
2023-01-19T01:29:04.796Z,25.60
2023-01-19T01:30:31.306Z,26.80
2023-01-19T01:33:05.862Z,23.70
2023-01-19T01:35:25.535Z,27.00
2023-01-19T01:44:10.500Z,27.90
2023-01-19T01:48:19.971Z,26.00
2023-01-19T01:52:16.499Z,26.80
2023-01-19T02:07:53.119Z,29.40
2023-01-19T02:10:48.214Z,33.00
2023-01-19T02:16:35.449Z,29.10
2023-01-19T02:19:06.175Z,31.40
2023-01-19T02:21:24.266Z,33.90
2023-01-19T02:25:33.090Z,32.30
2023-01-19T02:31:03.756Z,31.80
2023-01-19T02:35:23.159Z,33.70
2023-01-19T02:36:53.660Z,30.50
2023-01-19T02:39:32.677Z,28.00
2023-01-19T02:45:08.789Z,37.00
2023-01-19T02:47:41.069Z,31.50
2023-01-19T02:50:18.587Z,32.80
2023-01-19T02:57:38.099Z,34.20
2023-01-19T02:59:09.324Z,30.60
2023-01-19T03:01:31.131Z,30.30
2023-01-19T03:02:57.274Z,33.80
2023-01-19T03:05:50.799Z,32.10
2023-01-19T03:07:48.088Z,31.60
2023-01-19T03:11:48.620Z,32.70
2023-01-19T03:16:51.813Z,33.90
2023-01-19T03:18:53.835Z,30.30
2023-01-19T03:20:21.361Z,29.40
2023-01-19T03:22:39.843Z,31.10
2023-01-19T03:24:11.299Z,35.80
2023-01-19T03:28:01.142Z,29.00
2023-01-19T03:33:56.107Z,27.80
2023-01-19T03:36:50.054Z,30.10
2023-01-19T03:40:33.777Z,25.70
2023-01-19T03:44:35.068Z,27.70
2023-01-19T03:47:11.273Z,28.00
2023-01-19T03:53:45.443Z,23.90
2023-01-19T03:56:49.323Z,24.10
2023-01-19T03:58:19.220Z,22.50
2023-01-19T03:59:50.090Z,22.30
2023-01-19T04:06:05.084Z,19.50
2023-01-19T04:12:39.422Z,19.60
2023-01-19T04:14:07.777Z,20.00
2023-01-19T04:15:38.711Z,22.10
2023-01-19T04:21:07.135Z,20.50
2023-01-19T04:23:06.192Z,19.50
2023-01-19T04:24:36.224Z,19.60
2023-01-19T04:28:35.078Z,21.30
2023-01-19T04:30:02.964Z,18.70
2023-01-19T04:32:34.756Z,18.90
2023-01-19T04:41:23.163Z,19.20
2023-01-19T04:51:21.324Z,19.10
2023-01-19T04:52:48.738Z,19.90
2023-01-19T04:56:36.664Z,19.30
2023-01-19T04:58:08.574Z,19.60
2023-01-19T05:05:15.477Z,20.00
2023-01-19T05:06:43.862Z,18.90
2023-01-19T05:09:24.567Z,19.00
2023-01-19T05:13:20.206Z,19.00
2023-01-19T05:16:12.736Z,18.20
2023-01-19T05:19:52.975Z,18.60
2023-01-19T05:22:24.644Z,17.70
2023-01-19T05:23:54.711Z,18.20
2023-01-19T05:36:09.703Z,14.40
2023-01-19T05:37:41.204Z,14.00
2023-01-19T05:40:00.544Z,18.00
2023-01-19T05:41:47.633Z,14.80
2023-01-19T05:43:49.045Z,14.10
2023-01-19T05:45:50.758Z,14.00
2023-01-19T05:47:40.296Z,14.70
2023-01-19T05:50:09.897Z,13.70
2023-01-19T05:54:33.078Z,14.40
2023-01-19T05:57:05.992Z,12.50
2023-01-19T06:00:16.440Z,11.30
2023-01-19T06:04:05.722Z,10.40
2023-01-19T06:08:38.712Z,11.20
2023-01-19T06:15:02.534Z,9.50
2023-01-19T06:16:32.522Z,11.60
2023-01-19T06:20:23.199Z,9.90
2023-01-19T06:28:14.991Z,11.60
2023-01-19T06:33:53.614Z,11.60
2023-01-19T06:40:46.403Z,12.20
2023-01-19T06:42:44.982Z,8.80
2023-01-19T06:46:34.565Z,18.00
2023-01-19T06:58:38.947Z,10.70
2023-01-19T07:01:59.312Z,13.00
2023-01-19T07:03:29.069Z,15.60
2023-01-19T07:07:29.779Z,14.70
2023-01-19T07:24:23.123Z,13.00
2023-01-19T07:26:50.528Z,12.80
2023-01-19T07:34:35.078Z,12.90
2023-01-19T07:37:25.071Z,12.90
2023-01-19T07:44:24.365Z,18.40
2023-01-19T07:45:53.208Z,14.10
2023-01-19T07:47:54.586Z,19.50
2023-01-19T07:55:21.242Z,15.70
2023-01-19T07:57:58.509Z,14.70
2023-01-19T08:00:30.706Z,17.60
2023-01-19T08:03:22.472Z,14.20
2023-01-19T08:07:02.366Z,19.10
2023-01-19T08:13:08.461Z,18.30
2023-01-19T08:16:53.633Z,16.90
2023-01-19T08:20:25.249Z,19.10
2023-01-19T08:21:54.293Z,30.10
2023-01-19T08:23:46.259Z,20.70
2023-01-19T08:26:08.462Z,25.30
2023-01-19T08:30:26.152Z,17.80
2023-01-19T08:32:24.194Z,21.50
2023-01-19T08:35:24.944Z,18.80
2023-01-19T08:42:22.773Z,24.20
2023-01-19T08:45:46.430Z,18.50
2023-01-19T08:49:28.010Z,12.40
2023-01-19T08:52:18.680Z,15.30
2023-01-19T08:54:38.694Z,17.60
2023-01-19T08:56:10.831Z,20.00
2023-01-19T09:02:30.840Z,21.60
2023-01-19T09:07:42.700Z,19.00
2023-01-19T09:09:15.850Z,23.60
2023-01-19T09:11:30.103Z,18.10
2023-01-19T09:15:59.086Z,18.80
2023-01-19T09:19:06.892Z,39.00
2023-01-19T09:20:35.835Z,31.70
2023-01-19T09:22:04.670Z,35.00
2023-01-19T09:24:27.282Z,29.60
2023-01-19T09:26:17.076Z,22.70
2023-01-19T09:32:13.057Z,36.10
2023-01-19T09:34:44.078Z,33.50
2023-01-19T09:38:04.248Z,25.50
2023-01-19T09:43:18.160Z,18.70
2023-01-19T09:47:23.685Z,18.60
2023-01-19T09:49:22.927Z,15.00
2023-01-19T09:55:05.146Z,16.00
2023-01-19T09:56:55.941Z,25.30
2023-01-19T10:03:05.007Z,15.60
2023-01-19T10:06:29.415Z,25.90
2023-01-19T10:15:11.269Z,16.40
2023-01-19T10:17:10.720Z,17.50
2023-01-19T10:23:22.359Z,16.10
2023-01-19T10:25:34.718Z,21.50
2023-01-19T10:28:30.263Z,15.00
2023-01-19T10:30:01.693Z,23.20
2023-01-19T10:32:21.953Z,21.30
2023-01-19T10:34:13.229Z,20.90
2023-01-19T10:46:28.896Z,8.20
2023-01-19T10:50:04.649Z,14.90
2023-01-19T11:03:15.354Z,9.30
2023-01-19T11:11:23.837Z,9.60
2023-01-19T11:16:30.333Z,7.80
2023-01-19T11:18:26.644Z,8.30
2023-01-19T11:22:07.455Z,16.40
2023-01-19T11:23:36.790Z,28.40
2023-01-19T11:25:56.358Z,12.90
2023-01-19T11:27:56.448Z,8.60
2023-01-19T11:32:05.570Z,11.70
2023-01-19T11:35:22.567Z,16.60
2023-01-19T11:40:04.619Z,20.20
2023-01-19T11:41:33.533Z,16.10
2023-01-19T11:43:03.461Z,16.20
2023-01-19T11:46:32.026Z,15.90
2023-01-19T11:55:19.389Z,13.50
2023-01-19T12:00:36.797Z,16.20
2023-01-19T12:04:01.578Z,11.00
2023-01-19T12:05:29.739Z,12.50
2023-01-19T12:07:29.370Z,13.10
2023-01-19T12:09:49.125Z,7.10
2023-01-19T12:13:56.206Z,13.90
2023-01-19T12:16:55.191Z,12.00
2023-01-19T12:23:15.278Z,12.70
2023-01-19T12:29:14.749Z,9.50
2023-01-19T12:40:14.648Z,7.90
2023-01-19T12:41:51.247Z,13.70
2023-01-19T12:44:23.444Z,9.90
2023-01-19T12:46:25.457Z,10.20
2023-01-19T12:51:24.806Z,13.70
2023-01-19T12:58:57.980Z,10.10
2023-01-19T13:01:36.816Z,13.20
2023-01-19T13:07:58.230Z,15.00
2023-01-19T13:10:02.083Z,11.10
2023-01-19T13:13:26.913Z,18.80
2023-01-19T13:14:59.156Z,11.50
2023-01-19T13:16:27.716Z,12.60
2023-01-19T13:18:48.204Z,10.50
2023-01-19T13:23:29.957Z,12.40
2023-01-19T13:26:38.549Z,11.30
2023-01-19T13:28:56.376Z,14.80
2023-01-19T13:31:47.807Z,13.20
2023-01-19T13:39:45.898Z,13.70
2023-01-19T13:44:24.508Z,11.90
2023-01-19T13:50:38.828Z,12.70
2023-01-19T13:52:05.839Z,10.20
2023-01-19T13:55:01.134Z,12.80
2023-01-19T13:56:44.474Z,16.00
2023-01-19T14:00:23.346Z,17.60
2023-01-19T14:02:12.086Z,13.50
2023-01-19T14:03:40.521Z,11.90
2023-01-19T14:06:32.072Z,12.30
2023-01-19T14:13:30.859Z,8.30
2023-01-19T14:14:59.745Z,9.80
2023-01-19T14:16:57.431Z,7.20
2023-01-19T14:18:47.680Z,13.00
2023-01-19T14:20:40.544Z,7.80
2023-01-19T14:24:53.053Z,12.20
2023-01-19T14:26:56.556Z,7.10
2023-01-19T14:30:53.425Z,9.50
2023-01-19T14:38:18.944Z,12.00
2023-01-19T14:45:24.433Z,13.60
2023-01-19T14:47:33.738Z,16.30
2023-01-19T14:51:11.873Z,16.80
2023-01-19T14:52:40.348Z,16.30
2023-01-19T14:58:43.476Z,12.40
2023-01-19T15:01:35.506Z,23.10
2023-01-19T15:07:36.121Z,19.00
2023-01-19T15:09:32.872Z,21.50
2023-01-19T15:11:04.172Z,20.70
2023-01-19T15:13:22.433Z,25.20
2023-01-19T15:17:19.898Z,20.00
2023-01-19T15:22:48.761Z,27.10
2023-01-19T15:27:00.478Z,26.10
2023-01-19T15:28:29.828Z,28.10
2023-01-19T15:34:00.263Z,28.10
2023-01-19T15:40:42.027Z,28.90
2023-01-19T15:44:53.994Z,30.10
2023-01-19T15:50:25.197Z,31.90
2023-01-19T15:53:16.387Z,35.40
2023-01-19T15:57:26.698Z,34.30
2023-01-19T15:59:27.225Z,28.40
2023-01-19T16:00:54.875Z,32.20
2023-01-19T16:02:55.520Z,29.00
2023-01-19T16:04:26.257Z,29.20
2023-01-19T16:06:24.516Z,39.10
2023-01-19T16:08:47.058Z,26.90
2023-01-19T16:10:14.321Z,29.30
2023-01-19T16:13:17.121Z,27.70
2023-01-19T16:15:16.235Z,26.50
2023-01-19T16:18:35.304Z,24.30
2023-01-19T16:20:25.820Z,35.30
2023-01-19T16:23:48.358Z,24.10
2023-01-19T16:28:58.425Z,34.60
2023-01-19T16:30:48.290Z,37.80
2023-01-19T16:32:47.070Z,32.80
2023-01-19T16:34:46.825Z,31.80
2023-01-19T16:38:33.887Z,25.90
2023-01-19T16:41:42.049Z,30.40
2023-01-19T16:44:17.800Z,29.70
2023-01-19T16:48:26.736Z,31.00
2023-01-19T16:52:55.349Z,26.80
2023-01-19T16:56:09.250Z,30.20
2023-01-19T16:57:49.272Z,25.50
2023-01-19T16:59:18.236Z,30.90
2023-01-19T17:05:23.240Z,30.10
2023-01-19T17:07:12.626Z,27.20
2023-01-19T17:09:30.049Z,28.70
2023-01-19T17:14:09.052Z,27.50
2023-01-19T17:17:08.504Z,25.20
2023-01-19T17:20:09.747Z,20.40
2023-01-19T17:24:45.986Z,26.00
2023-01-19T17:28:18.990Z,24.60
2023-01-19T17:30:19.662Z,26.60
2023-01-19T17:33:41.926Z,28.30
2023-01-19T17:36:13.220Z,29.70
2023-01-19T17:39:50.626Z,29.10
2023-01-19T17:41:41.395Z,27.90
2023-01-19T17:43:11.374Z,30.30
2023-01-19T17:45:59.146Z,25.30
2023-01-19T17:48:28.564Z,32.60
2023-01-19T17:49:58.903Z,26.20
2023-01-19T17:51:49.058Z,29.40
2023-01-19T17:56:25.843Z,26.00
2023-01-19T17:58:15.000Z,34.10
2023-01-19T18:06:25.509Z,34.20
2023-01-19T18:10:09.377Z,33.00
2023-01-19T18:14:53.310Z,34.50
2023-01-19T18:17:14.119Z,31.90
2023-01-19T18:18:48.827Z,38.30
2023-01-19T18:20:13.831Z,37.00
2023-01-19T18:23:40.624Z,37.40
2023-01-19T18:25:10.556Z,37.20
2023-01-19T18:26:37.546Z,44.00
2023-01-19T18:28:09.201Z,38.50
2023-01-19T18:31:16.558Z,48.40
2023-01-19T18:33:18.984Z,43.50
2023-01-19T18:36:12.422Z,44.10
2023-01-19T18:38:39.133Z,47.20
2023-01-19T18:40:40.568Z,43.70
2023-01-19T18:42:11.392Z,48.20
2023-01-19T18:47:48.196Z,48.90
2023-01-19T18:49:17.565Z,53.80
2023-01-19T18:51:06.356Z,49.80
2023-01-19T18:52:06.285Z,50.70
2023-01-19T18:53:27.302Z,52.30
2023-01-19T18:56:48.947Z,52.70
2023-01-19T18:59:12.142Z,48.90
2023-01-19T19:06:38.462Z,49.30
2023-01-19T19:10:20.894Z,51.60
2023-01-19T19:12:43.190Z,52.00
2023-01-19T19:15:05.720Z,58.30
2023-01-19T19:18:30.896Z,60.60
2023-01-19T19:20:50.489Z,56.30
2023-01-19T19:22:41.446Z,61.10
2023-01-19T19:24:41.281Z,59.00
2023-01-19T19:26:09.589Z,61.20
2023-01-19T19:31:13.480Z,60.70
2023-01-19T19:38:34.239Z,59.60
2023-01-19T19:40:24.179Z,62.40
2023-01-19T19:43:24.166Z,56.00
2023-01-19T19:46:31.485Z,62.60
2023-01-19T19:48:01.373Z,67.60
2023-01-19T19:49:30.257Z,62.60
2023-01-19T19:51:31.315Z,65.60
2023-01-19T19:54:18.092Z,68.60
2023-01-19T19:56:37.323Z,62.60
2023-01-19T19:58:04.587Z,60.90
2023-01-19T20:00:25.455Z,63.90
2023-01-19T20:06:18.480Z,64.40
2023-01-19T20:07:50.273Z,67.00
2023-01-19T20:09:50.531Z,59.50
2023-01-19T20:12:40.887Z,66.50
2023-01-19T20:15:18.809Z,59.90
2023-01-19T20:16:50.447Z,60.00
2023-01-19T20:18:09.568Z,63.30
2023-01-19T20:18:48.552Z,64.20
2023-01-19T20:23:34.621Z,60.20
2023-01-19T20:29:05.303Z,69.10
2023-01-19T20:31:23.830Z,79.80
2023-01-19T20:33:12.658Z,78.70
2023-01-19T20:35:10.395Z,68.10
2023-01-19T20:36:41.657Z,65.70
2023-01-19T20:38:44.335Z,66.30
2023-01-19T20:40:32.113Z,65.70
2023-01-19T20:42:02.976Z,75.10
2023-01-19T20:43:31.012Z,70.20
2023-01-19T20:45:19.785Z,67.30
2023-01-19T20:50:21.656Z,76.00
2023-01-19T20:55:50.190Z,68.90
2023-01-19T20:57:22.350Z,67.10
2023-01-19T20:59:20.222Z,70.40
2023-01-19T21:04:40.627Z,61.70
2023-01-19T21:11:27.925Z,65.80
2023-01-19T21:14:26.716Z,64.40
2023-01-19T21:15:55.582Z,64.60
2023-01-19T21:24:22.605Z,63.30
2023-01-19T21:26:23.480Z,62.90
2023-01-19T21:28:23.451Z,57.50
2023-01-19T21:29:53.049Z,68.30
2023-01-19T21:33:51.082Z,64.00
2023-01-19T21:37:02.722Z,72.30
2023-01-19T21:41:57.305Z,62.80
2023-01-19T21:43:27.816Z,63.50
2023-01-19T21:45:46.561Z,62.10
2023-01-19T21:50:16.205Z,68.30
2023-01-19T21:54:27.263Z,60.50
2023-01-19T21:56:27.710Z,67.50
2023-01-19T21:58:28.985Z,61.40
2023-01-19T22:09:52.112Z,62.40
2023-01-19T22:14:05.665Z,60.00
2023-01-19T22:16:26.022Z,56.50
2023-01-19T22:19:11.034Z,56.70
2023-01-19T22:26:00.670Z,57.90
2023-01-19T22:27:26.936Z,57.40
2023-01-19T22:31:46.788Z,51.50
2023-01-19T22:36:24.284Z,53.20
2023-01-19T22:41:27.848Z,51.90
2023-01-19T22:49:29.350Z,55.60
2023-01-19T22:53:19.735Z,55.40
2023-01-19T22:56:06.840Z,56.60
2023-01-19T22:58:44.614Z,54.00
2023-01-19T23:01:25.128Z,49.30
2023-01-19T23:04:44.247Z,48.10
2023-01-19T23:06:35.040Z,51.20
2023-01-19T23:11:07.050Z,50.40
2023-01-19T23:13:51.895Z,48.70
2023-01-19T23:16:52.131Z,47.20
2023-01-19T23:20:14.328Z,44.50
2023-01-19T23:23:19.197Z,48.50
2023-01-19T23:31:46.332Z,49.40
2023-01-19T23:33:51.346Z,54.40
2023-01-19T23:37:31.935Z,53.90
2023-01-19T23:40:57.011Z,51.10
2023-01-19T23:42:29.954Z,54.00
2023-01-19T23:46:14.274Z,56.90
2023-01-19T23:48:40.204Z,55.20
2023-01-19T23:54:21.633Z,57.00
2023-01-19T23:56:41.822Z,60.10
2023-01-19T23:58:50.863Z,64.20
